sensor_id;sensor_type;location;lat;lon;timestamp;temperature;humidity
16102;DHT22;56411;52.964;10.540;2023-01-09T00:00:46;4.60;99.90
16102;DHT22;56411;52.964;10.540;2023-01-09T00:03:13;4.50;99.90
16102;DHT22;56411;52.964;10.540;2023-01-09T00:05:40;4.50;99.90
16102;DHT22;56411;52.964;10.540;2023-01-09T00:08:07;4.50;99.90
16102;DHT22;56411;52.964;10.540;2023-01-09T00:10:34;4.50;99.90
16102;DHT22;56411;52.964;10.540;2023-01-09T00:13:02;4.30;99.90
16102;DHT22;56411;52.964;10.540;2023-01-09T00:15:30;4.20;99.90
16102;DHT22;56411;52.964;10.540;2023-01-09T00:17:57;4.10;99.90
16102;DHT22;56411;52.964;10.540;2023-01-09T00:20:24;4.00;99.90
16102;DHT22;56411;52.964;10.540;2023-01-09T00:22:51;4.00;99.90
16102;DHT22;56411;52.964;10.540;2023-01-09T00:25:18;3.90;99.90
16102;DHT22;56411;52.964;10.540;2023-01-09T00:27:47;4.00;99.90
16102;DHT22;56411;52.964;10.540;2023-01-09T00:30:14;4.10;99.90
16102;DHT22;56411;52.964;10.540;2023-01-09T00:32:43;4.10;99.90
16102;DHT22;56411;52.964;10.540;2023-01-09T00:35:14;4.10;99.90
16102;DHT22;56411;52.964;10.540;2023-01-09T00:37:41;4.00;99.90
16102;DHT22;56411;52.964;10.540;2023-01-09T00:40:09;4.10;99.90
16102;DHT22;56411;52.964;10.540;2023-01-09T00:42:37;4.00;99.90
16102;DHT22;56411;52.964;10.540;2023-01-09T00:45:08;4.00;99.90
16102;DHT22;56411;52.964;10.540;2023-01-09T00:47:38;4.10;99.90
16102;DHT22;56411;52.964;10.540;2023-01-09T00:50:13;4.10;99.90
16102;DHT22;56411;52.964;10.540;2023-01-09T00:52:42;4.10;99.90
16102;DHT22;56411;52.964;10.540;2023-01-09T00:55:10;4.00;99.90
16102;DHT22;56411;52.964;10.540;2023-01-09T00:57:37;4.00;99.90
16102;DHT22;56411;52.964;10.540;2023-01-09T01:00:05;4.00;99.90
16102;DHT22;56411;52.964;10.540;2023-01-09T01:02:33;4.10;99.90
16102;DHT22;56411;52.964;10.540;2023-01-09T01:05:00;4.10;99.90
16102;DHT22;56411;52.964;10.540;2023-01-09T01:07:46;4.00;99.90
16102;DHT22;56411;52.964;10.540;2023-01-09T01:10:14;4.10;99.90
16102;DHT22;56411;52.964;10.540;2023-01-09T01:12:43;4.20;99.90
16102;DHT22;56411;52.964;10.540;2023-01-09T01:15:10;4.30;99.90
16102;DHT22;56411;52.964;10.540;2023-01-09T01:17:39;4.50;99.90
16102;DHT22;56411;52.964;10.540;2023-01-09T01:20:09;4.60;99.90
16102;DHT22;56411;52.964;10.540;2023-01-09T01:22:37;4.70;99.90
16102;DHT22;56411;52.964;10.540;2023-01-09T01:25:09;4.80;99.90
16102;DHT22;56411;52.964;10.540;2023-01-09T01:27:37;4.90;99.90
16102;DHT22;56411;52.964;10.540;2023-01-09T01:30:05;4.90;99.90
16102;DHT22;56411;52.964;10.540;2023-01-09T01:32:33;4.90;99.90
16102;DHT22;56411;52.964;10.540;2023-01-09T01:35:00;4.90;99.90
16102;DHT22;56411;52.964;10.540;2023-01-09T01:37:27;4.90;99.90
16102;DHT22;56411;52.964;10.540;2023-01-09T01:39:54;5.00;99.90
16102;DHT22;56411;52.964;10.540;2023-01-09T01:42:23;5.00;99.90
16102;DHT22;56411;52.964;10.540;2023-01-09T01:44:59;5.00;99.90
16102;DHT22;56411;52.964;10.540;2023-01-09T01:47:32;5.00;99.90
16102;DHT22;56411;52.964;10.540;2023-01-09T01:50:03;5.00;99.90
16102;DHT22;56411;52.964;10.540;2023-01-09T01:52:31;5.00;99.90
16102;DHT22;56411;52.964;10.540;2023-01-09T01:55:00;5.00;99.90
16102;DHT22;56411;52.964;10.540;2023-01-09T01:57:30;5.00;99.90
16102;DHT22;56411;52.964;10.540;2023-01-09T01:59:58;5.00;99.90
16102;DHT22;56411;52.964;10.540;2023-01-09T02:02:30;4.90;99.90
16102;DHT22;56411;52.964;10.540;2023-01-09T02:04:58;4.90;99.90
16102;DHT22;56411;52.964;10.540;2023-01-09T02:07:26;5.00;99.90
16102;DHT22;56411;52.964;10.540;2023-01-09T02:09:54;5.00;99.90
16102;DHT22;56411;52.964;10.540;2023-01-09T02:12:24;5.00;99.90
16102;DHT22;56411;52.964;10.540;2023-01-09T02:14:56;5.10;99.90
16102;DHT22;56411;52.964;10.540;2023-01-09T02:17:42;5.10;99.90
16102;DHT22;56411;52.964;10.540;2023-01-09T02:23:40;5.10;99.90
16102;DHT22;56411;52.964;10.540;2023-01-09T02:26:33;5.20;99.90
16102;DHT22;56411;52.964;10.540;2023-01-09T02:29:23;5.20;99.90
16102;DHT22;56411;52.964;10.540;2023-01-09T02:32:00;5.20;99.90
16102;DHT22;56411;52.964;10.540;2023-01-09T02:34:35;5.30;99.90
16102;DHT22;56411;52.964;10.540;2023-01-09T02:37:14;5.30;99.90
16102;DHT22;56411;52.964;10.540;2023-01-09T02:39:50;5.30;99.90
16102;DHT22;56411;52.964;10.540;2023-01-09T02:42:23;5.30;99.90
16102;DHT22;56411;52.964;10.540;2023-01-09T02:44:52;5.40;99.90
16102;DHT22;56411;52.964;10.540;2023-01-09T02:47:41;5.50;99.90
16102;DHT22;56411;52.964;10.540;2023-01-09T02:50:12;5.50;99.90
16102;DHT22;56411;52.964;10.540;2023-01-09T02:53:02;5.60;99.90
16102;DHT22;56411;52.964;10.540;2023-01-09T02:55:55;5.60;99.90
16102;DHT22;56411;52.964;10.540;2023-01-09T02:58:36;5.70;99.90
16102;DHT22;56411;52.964;10.540;2023-01-09T03:01:18;5.70;99.90
16102;DHT22;56411;52.964;10.540;2023-01-09T03:03:57;5.70;99.90
16102;DHT22;56411;52.964;10.540;2023-01-09T03:06:30;5.70;99.90
16102;DHT22;56411;52.964;10.540;2023-01-09T03:09:04;5.70;99.90
16102;DHT22;56411;52.964;10.540;2023-01-09T03:11:36;5.70;99.90
16102;DHT22;56411;52.964;10.540;2023-01-09T03:14:08;5.80;99.90
16102;DHT22;56411;52.964;10.540;2023-01-09T03:16:37;5.70;99.90
16102;DHT22;56411;52.964;10.540;2023-01-09T03:19:09;5.70;99.90
16102;DHT22;56411;52.964;10.540;2023-01-09T03:21:37;5.70;99.90
16102;DHT22;56411;52.964;10.540;2023-01-09T03:24:05;5.70;99.90
16102;DHT22;56411;52.964;10.540;2023-01-09T03:26:32;5.70;99.90
16102;DHT22;56411;52.964;10.540;2023-01-09T03:29:00;5.80;99.90
16102;DHT22;56411;52.964;10.540;2023-01-09T03:31:27;5.80;99.90
16102;DHT22;56411;52.964;10.540;2023-01-09T03:33:54;5.80;99.90
16102;DHT22;56411;52.964;10.540;2023-01-09T03:36:23;5.80;99.90
16102;DHT22;56411;52.964;10.540;2023-01-09T03:38:50;5.70;99.90
16102;DHT22;56411;52.964;10.540;2023-01-09T03:41:17;5.80;99.90
16102;DHT22;56411;52.964;10.540;2023-01-09T03:43:45;5.80;99.90
16102;DHT22;56411;52.964;10.540;2023-01-09T03:46:13;5.80;99.90
16102;DHT22;56411;52.964;10.540;2023-01-09T03:48:40;5.80;99.90
16102;DHT22;56411;52.964;10.540;2023-01-09T03:51:07;5.70;99.90
16102;DHT22;56411;52.964;10.540;2023-01-09T03:53:35;5.70;99.90
16102;DHT22;56411;52.964;10.540;2023-01-09T03:56:02;5.70;99.90
16102;DHT22;56411;52.964;10.540;2023-01-09T03:58:29;5.70;99.90
16102;DHT22;56411;52.964;10.540;2023-01-09T04:00:58;5.70;99.90
16102;DHT22;56411;52.964;10.540;2023-01-09T04:03:25;5.70;99.90
16102;DHT22;56411;52.964;10.540;2023-01-09T04:05:52;5.70;99.90
16102;DHT22;56411;52.964;10.540;2023-01-09T04:08:19;5.70;99.90
16102;DHT22;56411;52.964;10.540;2023-01-09T04:10:49;5.70;99.90
16102;DHT22;56411;52.964;10.540;2023-01-09T04:13:16;5.70;99.90
16102;DHT22;56411;52.964;10.540;2023-01-09T04:15:43;5.70;99.90
16102;DHT22;56411;52.964;10.540;2023-01-09T04:18:10;5.70;99.90
16102;DHT22;56411;52.964;10.540;2023-01-09T04:20:38;5.70;99.90
16102;DHT22;56411;52.964;10.540;2023-01-09T04:23:05;5.80;99.90
16102;DHT22;56411;52.964;10.540;2023-01-09T04:25:32;5.80;99.90
16102;DHT22;56411;52.964;10.540;2023-01-09T04:28:01;5.80;99.90
16102;DHT22;56411;52.964;10.540;2023-01-09T04:30:28;5.80;99.90
16102;DHT22;56411;52.964;10.540;2023-01-09T04:32:55;5.80;99.90
16102;DHT22;56411;52.964;10.540;2023-01-09T04:35:22;5.80;99.90
16102;DHT22;56411;52.964;10.540;2023-01-09T04:37:49;5.80;99.90
16102;DHT22;56411;52.964;10.540;2023-01-09T04:40:16;5.80;99.90
16102;DHT22;56411;52.964;10.540;2023-01-09T04:42:44;5.90;99.90
16102;DHT22;56411;52.964;10.540;2023-01-09T04:45:13;5.90;99.90
16102;DHT22;56411;52.964;10.540;2023-01-09T04:47:42;5.90;99.90
16102;DHT22;56411;52.964;10.540;2023-01-09T04:50:11;5.90;99.90
16102;DHT22;56411;52.964;10.540;2023-01-09T04:52:38;5.90;99.90
16102;DHT22;56411;52.964;10.540;2023-01-09T04:55:06;5.90;99.90
16102;DHT22;56411;52.964;10.540;2023-01-09T04:57:33;5.90;99.90
16102;DHT22;56411;52.964;10.540;2023-01-09T05:00:01;5.90;99.90
16102;DHT22;56411;52.964;10.540;2023-01-09T05:02:29;5.90;99.90
16102;DHT22;56411;52.964;10.540;2023-01-09T05:04:56;5.90;99.90
16102;DHT22;56411;52.964;10.540;2023-01-09T05:07:25;5.90;99.90
16102;DHT22;56411;52.964;10.540;2023-01-09T05:09:52;6.20;99.90
16102;DHT22;56411;52.964;10.540;2023-01-09T05:12:19;7.10;99.90
16102;DHT22;56411;52.964;10.540;2023-01-09T05:14:46;7.10;99.90
16102;DHT22;56411;52.964;10.540;2023-01-09T05:17:13;7.40;99.90
16102;DHT22;56411;52.964;10.540;2023-01-09T05:19:41;7.20;99.90
16102;DHT22;56411;52.964;10.540;2023-01-09T05:22:10;6.90;99.90
16102;DHT22;56411;52.964;10.540;2023-01-09T05:24:37;6.70;99.90
16102;DHT22;56411;52.964;10.540;2023-01-09T05:27:04;6.50;99.90
16102;DHT22;56411;52.964;10.540;2023-01-09T05:29:31;6.40;99.90
16102;DHT22;56411;52.964;10.540;2023-01-09T05:31:58;6.30;99.90
16102;DHT22;56411;52.964;10.540;2023-01-09T05:34:25;6.30;99.90
16102;DHT22;56411;52.964;10.540;2023-01-09T05:36:53;6.20;99.90
16102;DHT22;56411;52.964;10.540;2023-01-09T05:39:20;6.20;99.90
16102;DHT22;56411;52.964;10.540;2023-01-09T05:41:47;6.20;99.90
16102;DHT22;56411;52.964;10.540;2023-01-09T05:44:14;6.20;99.90
16102;DHT22;56411;52.964;10.540;2023-01-09T05:46:41;6.10;99.90
16102;DHT22;56411;52.964;10.540;2023-01-09T05:49:08;6.10;99.90
16102;DHT22;56411;52.964;10.540;2023-01-09T05:51:36;6.10;99.90
16102;DHT22;56411;52.964;10.540;2023-01-09T05:54:07;6.10;99.90
16102;DHT22;56411;52.964;10.540;2023-01-09T05:56:34;6.10;99.90
16102;DHT22;56411;52.964;10.540;2023-01-09T05:59:01;6.10;99.90
16102;DHT22;56411;52.964;10.540;2023-01-09T06:01:28;6.10;99.90
16102;DHT22;56411;52.964;10.540;2023-01-09T06:03:55;6.10;99.90
16102;DHT22;56411;52.964;10.540;2023-01-09T06:06:22;6.10;99.90
16102;DHT22;56411;52.964;10.540;2023-01-09T06:08:50;6.10;99.90
16102;DHT22;56411;52.964;10.540;2023-01-09T06:11:18;6.10;99.90
16102;DHT22;56411;52.964;10.540;2023-01-09T06:13:46;6.10;99.90
16102;DHT22;56411;52.964;10.540;2023-01-09T06:16:13;6.10;99.90
16102;DHT22;56411;52.964;10.540;2023-01-09T06:18:40;6.10;99.90
16102;DHT22;56411;52.964;10.540;2023-01-09T06:21:07;6.10;99.90
16102;DHT22;56411;52.964;10.540;2023-01-09T06:23:34;6.10;99.90
16102;DHT22;56411;52.964;10.540;2023-01-09T06:26:01;6.10;99.90
16102;DHT22;56411;52.964;10.540;2023-01-09T06:28:29;6.10;99.90
16102;DHT22;56411;52.964;10.540;2023-01-09T06:30:56;6.10;99.90
16102;DHT22;56411;52.964;10.540;2023-01-09T06:33:23;6.10;99.90
16102;DHT22;56411;52.964;10.540;2023-01-09T06:35:50;6.10;99.90
16102;DHT22;56411;52.964;10.540;2023-01-09T06:38:17;6.10;99.90
16102;DHT22;56411;52.964;10.540;2023-01-09T06:40:44;6.00;99.90
16102;DHT22;56411;52.964;10.540;2023-01-09T06:43:10;6.00;99.90
16102;DHT22;56411;52.964;10.540;2023-01-09T06:45:41;6.00;99.90
16102;DHT22;56411;52.964;10.540;2023-01-09T06:48:08;6.00;99.90
16102;DHT22;56411;52.964;10.540;2023-01-09T06:50:35;6.00;99.90
16102;DHT22;56411;52.964;10.540;2023-01-09T06:53:02;6.00;99.90
16102;DHT22;56411;52.964;10.540;2023-01-09T06:55:29;6.00;99.90
16102;DHT22;56411;52.964;10.540;2023-01-09T06:57:56;5.90;99.90
16102;DHT22;56411;52.964;10.540;2023-01-09T07:00:23;5.90;99.90
16102;DHT22;56411;52.964;10.540;2023-01-09T07:02:53;6.00;99.90
16102;DHT22;56411;52.964;10.540;2023-01-09T07:05:20;6.00;99.90
16102;DHT22;56411;52.964;10.540;2023-01-09T07:07:46;6.00;99.90
16102;DHT22;56411;52.964;10.540;2023-01-09T07:10:14;6.00;99.90
16102;DHT22;56411;52.964;10.540;2023-01-09T07:12:41;6.00;99.90
16102;DHT22;56411;52.964;10.540;2023-01-09T07:15:08;6.00;99.90
16102;DHT22;56411;52.964;10.540;2023-01-09T07:17:36;5.90;99.90
16102;DHT22;56411;52.964;10.540;2023-01-09T07:20:05;6.00;99.90
16102;DHT22;56411;52.964;10.540;2023-01-09T07:22:32;6.00;99.90
16102;DHT22;56411;52.964;10.540;2023-01-09T07:24:59;6.00;99.90
16102;DHT22;56411;52.964;10.540;2023-01-09T07:27:26;6.00;99.90
16102;DHT22;56411;52.964;10.540;2023-01-09T07:29:53;6.00;99.90
16102;DHT22;56411;52.964;10.540;2023-01-09T07:32:20;6.00;99.90
16102;DHT22;56411;52.964;10.540;2023-01-09T07:34:47;6.10;99.90
16102;DHT22;56411;52.964;10.540;2023-01-09T07:37:17;6.10;99.90
16102;DHT22;56411;52.964;10.540;2023-01-09T07:39:44;6.10;99.90
16102;DHT22;56411;52.964;10.540;2023-01-09T07:42:11;6.10;99.90
16102;DHT22;56411;52.964;10.540;2023-01-09T07:44:38;6.10;99.90
16102;DHT22;56411;52.964;10.540;2023-01-09T07:47:05;6.10;99.90
16102;DHT22;56411;52.964;10.540;2023-01-09T07:49:32;6.10;99.90
16102;DHT22;56411;52.964;10.540;2023-01-09T07:52:00;6.10;99.90
16102;DHT22;56411;52.964;10.540;2023-01-09T07:54:28;6.20;99.90
16102;DHT22;56411;52.964;10.540;2023-01-09T07:56:55;6.10;99.90
16102;DHT22;56411;52.964;10.540;2023-01-09T07:59:22;6.10;99.90
16102;DHT22;56411;52.964;10.540;2023-01-09T08:01:50;6.10;99.90
16102;DHT22;56411;52.964;10.540;2023-01-09T08:04:17;6.20;99.90
16102;DHT22;56411;52.964;10.540;2023-01-09T08:06:44;6.10;99.90
16102;DHT22;56411;52.964;10.540;2023-01-09T08:09:11;6.10;99.90
16102;DHT22;56411;52.964;10.540;2023-01-09T08:11:39;6.10;99.90
16102;DHT22;56411;52.964;10.540;2023-01-09T08:14:06;6.10;99.90
16102;DHT22;56411;52.964;10.540;2023-01-09T08:16:33;6.20;99.90
16102;DHT22;56411;52.964;10.540;2023-01-09T08:19:00;6.20;99.90
16102;DHT22;56411;52.964;10.540;2023-01-09T08:21:27;6.20;99.90
16102;DHT22;56411;52.964;10.540;2023-01-09T08:23:54;6.20;99.90
16102;DHT22;56411;52.964;10.540;2023-01-09T08:26:21;6.20;99.90
16102;DHT22;56411;52.964;10.540;2023-01-09T08:28:49;6.20;99.90
16102;DHT22;56411;52.964;10.540;2023-01-09T08:31:16;6.20;99.90
16102;DHT22;56411;52.964;10.540;2023-01-09T08:33:44;6.20;99.90
16102;DHT22;56411;52.964;10.540;2023-01-09T08:36:10;6.10;99.90
16102;DHT22;56411;52.964;10.540;2023-01-09T08:38:37;6.10;99.90
16102;DHT22;56411;52.964;10.540;2023-01-09T08:41:05;6.10;99.90
16102;DHT22;56411;52.964;10.540;2023-01-09T08:43:45;6.20;99.90
16102;DHT22;56411;52.964;10.540;2023-01-09T08:46:31;6.10;99.90
16102;DHT22;56411;52.964;10.540;2023-01-09T08:49:16;6.20;99.90
16102;DHT22;56411;52.964;10.540;2023-01-09T08:51:43;6.20;99.90
16102;DHT22;56411;52.964;10.540;2023-01-09T08:54:09;6.20;99.90
16102;DHT22;56411;52.964;10.540;2023-01-09T08:56:36;6.20;99.90
16102;DHT22;56411;52.964;10.540;2023-01-09T08:59:03;6.30;99.90
16102;DHT22;56411;52.964;10.540;2023-01-09T09:01:32;6.30;99.90
16102;DHT22;56411;52.964;10.540;2023-01-09T09:03:59;6.30;99.90
16102;DHT22;56411;52.964;10.540;2023-01-09T09:06:26;6.20;99.90
16102;DHT22;56411;52.964;10.540;2023-01-09T09:08:52;6.20;99.90
16102;DHT22;56411;52.964;10.540;2023-01-09T09:11:20;6.20;99.90
16102;DHT22;56411;52.964;10.540;2023-01-09T09:13:47;6.20;99.90
16102;DHT22;56411;52.964;10.540;2023-01-09T09:16:14;6.20;99.90
16102;DHT22;56411;52.964;10.540;2023-01-09T09:18:43;6.20;99.90
16102;DHT22;56411;52.964;10.540;2023-01-09T09:21:09;6.10;99.90
16102;DHT22;56411;52.964;10.540;2023-01-09T09:23:36;6.10;99.90
16102;DHT22;56411;52.964;10.540;2023-01-09T09:26:04;6.10;99.90
16102;DHT22;56411;52.964;10.540;2023-01-09T09:28:31;6.10;99.90
16102;DHT22;56411;52.964;10.540;2023-01-09T09:30:58;6.10;99.90
16102;DHT22;56411;52.964;10.540;2023-01-09T09:33:25;6.20;99.90
16102;DHT22;56411;52.964;10.540;2023-01-09T09:35:53;6.20;99.90
16102;DHT22;56411;52.964;10.540;2023-01-09T09:38:21;6.30;99.90
16102;DHT22;56411;52.964;10.540;2023-01-09T09:41:13;6.30;99.90
16102;DHT22;56411;52.964;10.540;2023-01-09T09:44:14;6.40;99.90
16102;DHT22;56411;52.964;10.540;2023-01-09T09:47:05;6.50;99.90
16102;DHT22;56411;52.964;10.540;2023-01-09T09:49:42;6.50;99.90
16102;DHT22;56411;52.964;10.540;2023-01-09T09:52:19;6.50;99.90
16102;DHT22;56411;52.964;10.540;2023-01-09T09:54:50;6.60;99.90
16102;DHT22;56411;52.964;10.540;2023-01-09T09:57:22;6.60;99.90
16102;DHT22;56411;52.964;10.540;2023-01-09T09:59:52;6.70;99.90
16102;DHT22;56411;52.964;10.540;2023-01-09T10:02:27;6.80;99.90
16102;DHT22;56411;52.964;10.540;2023-01-09T10:05:00;6.70;99.90
16102;DHT22;56411;52.964;10.540;2023-01-09T10:07:35;6.60;99.90
16102;DHT22;56411;52.964;10.540;2023-01-09T10:10:12;6.60;99.90
16102;DHT22;56411;52.964;10.540;2023-01-09T10:12:45;6.60;99.90
16102;DHT22;56411;52.964;10.540;2023-01-09T10:15:18;6.70;99.90
16102;DHT22;56411;52.964;10.540;2023-01-09T10:17:55;6.80;99.90
16102;DHT22;56411;52.964;10.540;2023-01-09T10:20:40;6.80;99.90
16102;DHT22;56411;52.964;10.540;2023-01-09T10:23:26;6.90;99.90
16102;DHT22;56411;52.964;10.540;2023-01-09T10:25:59;7.00;99.90
16102;DHT22;56411;52.964;10.540;2023-01-09T10:28:51;7.10;99.90
16102;DHT22;56411;52.964;10.540;2023-01-09T10:31:26;7.00;99.90
16102;DHT22;56411;52.964;10.540;2023-01-09T10:34:08;7.10;99.90
16102;DHT22;56411;52.964;10.540;2023-01-09T10:36:59;7.20;99.90
16102;DHT22;56411;52.964;10.540;2023-01-09T10:39:34;7.30;99.90
16102;DHT22;56411;52.964;10.540;2023-01-09T10:42:07;7.40;99.90
16102;DHT22;56411;52.964;10.540;2023-01-09T10:44:41;7.50;99.90
16102;DHT22;56411;52.964;10.540;2023-01-09T10:47:23;7.60;99.90
16102;DHT22;56411;52.964;10.540;2023-01-09T10:49:51;7.70;99.90
16102;DHT22;56411;52.964;10.540;2023-01-09T10:52:24;7.90;99.90
16102;DHT22;56411;52.964;10.540;2023-01-09T10:54:59;7.90;99.90
16102;DHT22;56411;52.964;10.540;2023-01-09T10:57:40;8.00;99.90
16102;DHT22;56411;52.964;10.540;2023-01-09T11:00:14;8.00;99.90
16102;DHT22;56411;52.964;10.540;2023-01-09T11:02:42;7.90;99.90
16102;DHT22;56411;52.964;10.540;2023-01-09T11:05:12;7.80;99.90
16102;DHT22;56411;52.964;10.540;2023-01-09T11:07:42;7.80;99.90
16102;DHT22;56411;52.964;10.540;2023-01-09T11:10:13;7.70;99.90
16102;DHT22;56411;52.964;10.540;2023-01-09T11:12:41;7.50;99.90
16102;DHT22;56411;52.964;10.540;2023-01-09T11:15:23;7.40;99.90
16102;DHT22;56411;52.964;10.540;2023-01-09T11:17:56;7.60;99.90
16102;DHT22;56411;52.964;10.540;2023-01-09T11:20:26;7.60;99.90
16102;DHT22;56411;52.964;10.540;2023-01-09T11:22:55;7.90;99.90
16102;DHT22;56411;52.964;10.540;2023-01-09T11:25:25;8.40;99.90
16102;DHT22;56411;52.964;10.540;2023-01-09T11:28:04;9.00;99.90
16102;DHT22;56411;52.964;10.540;2023-01-09T11:30:31;9.20;99.90
16102;DHT22;56411;52.964;10.540;2023-01-09T11:33:12;9.50;99.90
16102;DHT22;56411;52.964;10.540;2023-01-09T11:36:03;9.60;99.90
16102;DHT22;56411;52.964;10.540;2023-01-09T11:38:45;9.50;99.90
16102;DHT22;56411;52.964;10.540;2023-01-09T11:41:18;9.00;99.90
16102;DHT22;56411;52.964;10.540;2023-01-09T11:43:47;8.40;99.90
16102;DHT22;56411;52.964;10.540;2023-01-09T11:46:34;8.10;99.90
16102;DHT22;56411;52.964;10.540;2023-01-09T11:49:04;7.90;99.90
16102;DHT22;56411;52.964;10.540;2023-01-09T11:51:33;7.80;99.90
16102;DHT22;56411;52.964;10.540;2023-01-09T11:54:15;7.80;99.90
16102;DHT22;56411;52.964;10.540;2023-01-09T11:56:45;7.70;99.90
16102;DHT22;56411;52.964;10.540;2023-01-09T11:59:14;7.70;99.90
16102;DHT22;56411;52.964;10.540;2023-01-09T12:04:49;7.50;99.90
16102;DHT22;56411;52.964;10.540;2023-01-09T12:07:43;7.40;99.90
16102;DHT22;56411;52.964;10.540;2023-01-09T12:10:32;7.40;99.90
16102;DHT22;56411;52.964;10.540;2023-01-09T12:13:10;7.50;99.90
16102;DHT22;56411;52.964;10.540;2023-01-09T12:15:48;7.60;99.90
16102;DHT22;56411;52.964;10.540;2023-01-09T12:18:26;7.70;99.90
16102;DHT22;56411;52.964;10.540;2023-01-09T12:21:15;7.80;99.90
16102;DHT22;56411;52.964;10.540;2023-01-09T12:23:56;8.20;99.90
16102;DHT22;56411;52.964;10.540;2023-01-09T12:26:30;8.50;99.90
16102;DHT22;56411;52.964;10.540;2023-01-09T12:29:23;8.50;99.90
16102;DHT22;56411;52.964;10.540;2023-01-09T12:32:03;8.40;99.90
16102;DHT22;56411;52.964;10.540;2023-01-09T12:34:51;8.20;99.90
16102;DHT22;56411;52.964;10.540;2023-01-09T12:37:38;8.00;99.90
16102;DHT22;56411;52.964;10.540;2023-01-09T12:40:20;8.00;99.90
16102;DHT22;56411;52.964;10.540;2023-01-09T12:42:52;7.90;99.90
16102;DHT22;56411;52.964;10.540;2023-01-09T12:45:36;7.80;99.90
16102;DHT22;56411;52.964;10.540;2023-01-09T12:48:15;7.60;99.90
16102;DHT22;56411;52.964;10.540;2023-01-09T12:51:15;7.60;99.90
16102;DHT22;56411;52.964;10.540;2023-01-09T12:53:49;7.70;99.90
16102;DHT22;56411;52.964;10.540;2023-01-09T12:56:22;7.80;99.90
16102;DHT22;56411;52.964;10.540;2023-01-09T12:58:53;7.80;99.90
16102;DHT22;56411;52.964;10.540;2023-01-09T13:01:27;7.90;99.90
16102;DHT22;56411;52.964;10.540;2023-01-09T13:04:03;7.80;99.90
16102;DHT22;56411;52.964;10.540;2023-01-09T13:06:33;7.80;99.90
16102;DHT22;56411;52.964;10.540;2023-01-09T13:09:14;7.80;99.90
16102;DHT22;56411;52.964;10.540;2023-01-09T13:11:47;7.80;99.90
16102;DHT22;56411;52.964;10.540;2023-01-09T13:14:20;7.80;99.90
16102;DHT22;56411;52.964;10.540;2023-01-09T13:16:51;7.80;99.90
16102;DHT22;56411;52.964;10.540;2023-01-09T13:19:22;7.70;99.90
16102;DHT22;56411;52.964;10.540;2023-01-09T13:21:51;7.70;99.90
16102;DHT22;56411;52.964;10.540;2023-01-09T13:24:21;7.90;99.90
16102;DHT22;56411;52.964;10.540;2023-01-09T13:26:52;7.90;99.90
16102;DHT22;56411;52.964;10.540;2023-01-09T13:29:24;7.90;99.90
16102;DHT22;56411;52.964;10.540;2023-01-09T13:32:13;7.90;99.90
16102;DHT22;56411;52.964;10.540;2023-01-09T13:34:45;7.80;99.90
16102;DHT22;56411;52.964;10.540;2023-01-09T13:37:20;7.80;99.90
16102;DHT22;56411;52.964;10.540;2023-01-09T13:39:55;7.70;99.90
16102;DHT22;56411;52.964;10.540;2023-01-09T13:42:23;7.70;99.90
16102;DHT22;56411;52.964;10.540;2023-01-09T13:45:18;7.70;99.90
16102;DHT22;56411;52.964;10.540;2023-01-09T13:48:20;7.70;99.90
16102;DHT22;56411;52.964;10.540;2023-01-09T13:50:49;7.60;99.90
16102;DHT22;56411;52.964;10.540;2023-01-09T13:53:45;7.60;99.90
16102;DHT22;56411;52.964;10.540;2023-01-09T13:56:12;7.50;99.90
16102;DHT22;56411;52.964;10.540;2023-01-09T13:59:00;7.50;99.90
16102;DHT22;56411;52.964;10.540;2023-01-09T14:01:42;7.50;99.90
16102;DHT22;56411;52.964;10.540;2023-01-09T14:04:42;7.50;99.90
16102;DHT22;56411;52.964;10.540;2023-01-09T14:07:30;7.50;99.90
16102;DHT22;56411;52.964;10.540;2023-01-09T14:09:59;7.50;99.90
16102;DHT22;56411;52.964;10.540;2023-01-09T14:12:28;7.40;99.90
16102;DHT22;56411;52.964;10.540;2023-01-09T14:14:58;7.40;99.90
16102;DHT22;56411;52.964;10.540;2023-01-09T14:17:30;7.40;99.90
16102;DHT22;56411;52.964;10.540;2023-01-09T14:20:00;7.40;99.90
16102;DHT22;56411;52.964;10.540;2023-01-09T14:22:30;7.40;99.90
16102;DHT22;56411;52.964;10.540;2023-01-09T14:25:06;7.40;99.90
16102;DHT22;56411;52.964;10.540;2023-01-09T14:28:16;7.40;99.90
16102;DHT22;56411;52.964;10.540;2023-01-09T14:31:06;7.40;99.90
16102;DHT22;56411;52.964;10.540;2023-01-09T14:33:33;7.30;99.90
16102;DHT22;56411;52.964;10.540;2023-01-09T14:36:08;7.30;99.90
16102;DHT22;56411;52.964;10.540;2023-01-09T14:38:41;7.30;99.90
16102;DHT22;56411;52.964;10.540;2023-01-09T14:41:18;7.30;99.90
16102;DHT22;56411;52.964;10.540;2023-01-09T14:44:16;7.30;99.90
16102;DHT22;56411;52.964;10.540;2023-01-09T14:46:45;7.30;99.90
16102;DHT22;56411;52.964;10.540;2023-01-09T14:49:18;7.30;99.90
16102;DHT22;56411;52.964;10.540;2023-01-09T14:51:49;7.20;99.90
16102;DHT22;56411;52.964;10.540;2023-01-09T14:54:23;7.20;99.90
16102;DHT22;56411;52.964;10.540;2023-01-09T14:56:53;7.20;99.90
16102;DHT22;56411;52.964;10.540;2023-01-09T14:59:20;7.10;99.90
16102;DHT22;56411;52.964;10.540;2023-01-09T15:01:49;7.10;99.90
16102;DHT22;56411;52.964;10.540;2023-01-09T15:04:25;7.10;99.90
16102;DHT22;56411;52.964;10.540;2023-01-09T15:06:54;7.00;99.90
16102;DHT22;56411;52.964;10.540;2023-01-09T15:09:24;7.00;99.90
16102;DHT22;56411;52.964;10.540;2023-01-09T15:11:53;7.00;99.90
16102;DHT22;56411;52.964;10.540;2023-01-09T15:14:29;7.00;99.90
16102;DHT22;56411;52.964;10.540;2023-01-09T15:16:58;7.00;99.90
16102;DHT22;56411;52.964;10.540;2023-01-09T15:19:26;6.90;99.90
16102;DHT22;56411;52.964;10.540;2023-01-09T15:22:03;7.00;99.90
16102;DHT22;56411;52.964;10.540;2023-01-09T15:24:31;6.90;99.90
16102;DHT22;56411;52.964;10.540;2023-01-09T15:27:00;6.90;99.90
16102;DHT22;56411;52.964;10.540;2023-01-09T15:29:27;6.80;99.90
16102;DHT22;56411;52.964;10.540;2023-01-09T15:31:59;6.80;99.90
16102;DHT22;56411;52.964;10.540;2023-01-09T15:34:28;6.80;99.90
16102;DHT22;56411;52.964;10.540;2023-01-09T15:36:55;6.80;99.90
16102;DHT22;56411;52.964;10.540;2023-01-09T15:39:25;6.90;99.90
16102;DHT22;56411;52.964;10.540;2023-01-09T15:41:54;6.90;99.90
16102;DHT22;56411;52.964;10.540;2023-01-09T15:44:41;6.90;99.90
16102;DHT22;56411;52.964;10.540;2023-01-09T15:47:14;6.80;99.90
16102;DHT22;56411;52.964;10.540;2023-01-09T15:49:43;6.90;99.90
16102;DHT22;56411;52.964;10.540;2023-01-09T15:52:12;6.80;99.90
16102;DHT22;56411;52.964;10.540;2023-01-09T15:54:44;6.80;99.90
16102;DHT22;56411;52.964;10.540;2023-01-09T15:57:27;6.70;99.90
16102;DHT22;56411;52.964;10.540;2023-01-09T15:59:56;6.70;99.90
16102;DHT22;56411;52.964;10.540;2023-01-09T16:02:25;6.70;99.90
16102;DHT22;56411;52.964;10.540;2023-01-09T16:05:13;6.80;99.90